Time;durP1;ratioP1;P1;durP2;ratioP2;P2;SDS_P1;SDS_P2;PMS_P1;PMS_P2;Temp;Humidity;BMP_temperature;BMP_pressure;BME280_temperature;BME280_humidity;BME280_pressure;Samples;Min_cycle;Max_cycle;Signal;HPM_P1;HPM_P2
2021/05/24 00:01:44;;;;;;;4.88;3.13;;;16.10;62.90;;;;;;20837330;28;20449;-64
2021/05/24 00:11:50;;;;;;;6.88;3.22;;;16.00;63.00;;;;;;20835570;28;20418;-64
2021/05/24 00:21:51;;;;;;;4.10;2.47;;;16.00;62.90;;;;;;20835726;28;20453;-65
2021/05/24 00:31:52;;;;;;;3.70;1.90;;;16.00;62.20;;;;;;20833847;28;20053;-63
2021/05/24 00:41:54;;;;;;;3.03;1.48;;;16.00;58.90;;;;;;20834055;28;20045;-65
2021/05/24 00:51:56;;;;;;;3.72;1.67;;;15.90;57.60;;;;;;20833212;28;20060;-65
2021/05/24 01:01:58;;;;;;;3.55;1.60;;;15.90;57.60;;;;;;20832294;28;20045;-65
2021/05/24 01:11:59;;;;;;;3.33;1.67;;;15.80;57.70;;;;;;20831537;28;20520;-64
2021/05/24 01:22:01;;;;;;;3.45;1.60;;;15.70;56.50;;;;;;20831184;28;20052;-64
2021/05/24 01:32:02;;;;;;;4.72;1.40;;;15.70;54.10;;;;;;20831739;28;20414;-65
2021/05/24 01:42:04;;;;;;;2.67;1.40;;;15.70;51.70;;;;;;20828976;28;20049;-64
2021/05/24 01:52:06;;;;;;;1.63;0.90;;;15.60;50.90;;;;;;20829434;28;20057;-64
2021/05/24 02:02:08;;;;;;;1.83;0.90;;;15.50;50.70;;;;;;20828714;28;20053;-64
2021/05/24 02:12:10;;;;;;;3.00;1.10;;;15.60;49.40;;;;;;20829712;28;20057;-64
2021/05/24 02:22:11;;;;;;;1.85;1.17;;;15.50;48.60;;;;;;20828131;28;20041;-64
2021/05/24 02:32:12;;;;;;;4.15;1.33;;;15.50;48.70;;;;;;20827445;28;20489;-64
2021/05/24 02:42:13;;;;;;;3.10;0.80;;;15.40;47.90;;;;;;20828068;28;20088;-65
2021/05/24 02:52:15;;;;;;;4.03;0.95;;;15.40;47.10;;;;;;20837117;28;20057;-65
2021/05/24 03:02:23;;;;;;;2.67;1.00;;;15.20;47.40;;;;;;20841577;28;20056;-65
2021/05/24 03:12:24;;;;;;;2.78;0.90;;;15.20;47.70;;;;;;20840711;28;20052;-65
2021/05/24 03:22:26;;;;;;;1.67;0.98;;;15.10;47.50;;;;;;20841312;28;20046;-66
2021/05/24 03:32:27;;;;;;;2.88;1.00;;;15.20;47.60;;;;;;20839217;28;20058;-66
2021/05/24 03:42:28;;;;;;;1.63;0.70;;;15.10;46.40;;;;;;20837215;28;20057;-65
2021/05/24 03:52:29;;;;;;;2.72;0.70;;;15.10;46.80;;;;;;20836441;28;20061;-65
2021/05/24 04:02:31;;;;;;;1.73;0.90;;;15.10;46.40;;;;;;20836669;28;20501;-64
2021/05/24 04:12:32;;;;;;;2.45;0.82;;;15.10;46.40;;;;;;20836781;28;20050;-66
2021/05/24 04:22:34;;;;;;;3.20;0.98;;;14.90;46.30;;;;;;20836197;28;20053;-65
2021/05/24 04:32:36;;;;;;;4.03;0.95;;;14.90;46.40;;;;;;20834507;28;20057;-65
2021/05/24 04:42:38;;;;;;;4.35;1.63;;;14.90;46.60;;;;;;20833993;28;20045;-65
2021/05/24 04:52:39;;;;;;;6.10;2.30;;;15.10;46.60;;;;;;20832845;28;20057;-66
2021/05/24 05:02:41;;;;;;;4.07;1.17;;;15.10;46.90;;;;;;20830924;28;20047;-65
2021/05/24 05:12:42;;;;;;;2.40;0.93;;;15.10;46.50;;;;;;20829084;28;20081;-65
2021/05/24 05:22:44;;;;;;;3.22;1.38;;;15.10;45.80;;;;;;20830769;28;20046;-65
2021/05/24 05:32:45;;;;;;;3.05;1.00;;;15.10;45.00;;;;;;20830010;28;20119;-66
2021/05/24 05:42:47;;;;;;;4.25;1.45;;;15.10;44.00;;;;;;20828867;28;20041;-65
2021/05/24 05:52:49;;;;;;;3.47;1.73;;;15.20;43.00;;;;;;20829325;28;20057;-64
2021/05/24 06:02:50;;;;;;;5.90;1.50;;;15.40;41.90;;;;;;20827599;28;20054;-65
2021/05/24 06:12:51;;;;;;;4.15;1.80;;;15.50;42.20;;;;;;20828522;28;20050;-64
2021/05/24 06:22:53;;;;;;;5.53;1.90;;;15.70;42.50;;;;;;20832393;28;20092;-65
2021/05/24 06:32:54;;;;;;;3.53;1.98;;;15.80;42.90;;;;;;20842887;28;20057;-64
2021/05/24 06:42:55;;;;;;;2.28;1.73;;;16.20;43.10;;;;;;20843951;28;20061;-62
2021/05/24 06:52:56;;;;;;;3.53;1.83;;;16.40;42.80;;;;;;20842097;28;20056;-64
2021/05/24 07:02:58;;;;;;;4.55;1.50;;;16.60;42.80;;;;;;20841290;28;20076;-65
2021/05/24 07:12:59;;;;;;;4.47;1.80;;;16.50;43.40;;;;;;20839926;28;20065;-64
2021/05/24 07:23:00;;;;;;;3.97;1.60;;;17.20;41.80;;;;;;20840086;28;20048;-65
2021/05/24 07:33:02;;;;;;;2.28;1.38;;;18.30;40.50;;;;;;20838157;28;20108;-65
2021/05/24 07:43:03;;;;;;;3.63;1.45;;;19.10;39.20;;;;;;20838347;28;20124;-65
2021/05/24 07:53:05;;;;;;;3.10;1.45;;;19.70;38.30;;;;;;20838043;28;20064;-65
2021/05/24 08:03:06;;;;;;;1.90;1.35;;;20.20;37.60;;;;;;20836649;28;20045;-65
2021/05/24 08:13:07;;;;;;;5.30;1.40;;;20.70;37.30;;;;;;20837833;28;20476;-63
2021/05/24 08:23:08;;;;;;;3.55;1.20;;;21.10;36.70;;;;;;20834360;28;20513;-63
2021/05/24 08:33:10;;;;;;;3.47;1.20;;;21.40;36.40;;;;;;20834594;28;20057;-65
2021/05/24 08:43:13;;;;;;;2.03;0.82;;;21.60;36.40;;;;;;20831296;28;20067;-63
2021/05/24 08:53:15;;;;;;;34.22;4.25;;;22.00;36.10;;;;;;20841602;28;20064;-67
2021/05/24 09:03:30;;;;;;;12.55;6.63;;;22.60;37.80;;;;;;20922173;28;20110;-70
2021/05/24 09:13:34;;;;;;;2.63;1.23;;;23.00;36.60;;;;;;20830694;28;20053;-63
2021/05/24 09:23:35;;;;;;;3.08;1.40;;;23.00;35.70;;;;;;20830662;28;20406;-62
2021/05/24 09:33:39;;;;;;;2.55;1.30;;;23.00;36.00;;;;;;20906592;28;20060;-66
2021/05/24 09:43:46;;;;;;;5.65;1.30;;;23.30;35.60;;;;;;20911969;28;20045;-65
2021/05/24 09:54:11;;;;;;;5.53;1.90;;;23.70;35.60;;;;;;20912363;28;20053;-67
2021/05/24 10:04:15;;;;;;;6.18;1.50;;;23.60;36.40;;;;;;20936729;28;20052;-62
2021/05/24 10:14:19;;;;;;;4.20;1.17;;;23.60;36.80;;;;;;20937573;28;20053;-63
2021/05/24 10:24:22;;;;;;;4.78;1.30;;;23.70;36.60;;;;;;20936719;28;20103;-61
2021/05/24 10:34:25;;;;;;;4.82;2.10;;;23.80;36.20;;;;;;20936369;28;20053;-61
2021/05/24 10:44:38;;;;;;;2.03;1.13;;;23.90;35.80;;;;;;20935540;28;20108;-64
2021/05/24 10:54:41;;;;;;;2.17;1.10;;;23.60;35.60;;;;;;20936977;28;20143;-60
2021/05/24 11:04:59;;;;;;;2.83;1.10;;;23.60;36.20;;;;;;20935746;28;20502;-61
2021/05/24 11:15:13;;;;;;;2.58;0.95;;;23.70;36.30;;;;;;20910117;28;20053;-62
2021/05/24 11:35:51;;;;;;;5.55;1.90;;;23.60;35.50;;;;;;20837610;28;20061;-62
2021/05/24 11:45:53;;;;;;;1.80;0.80;;;23.50;36.10;;;;;;20837642;28;20056;-59
2021/05/24 11:56:05;;;;;;;1.73;0.90;;;23.20;36.10;;;;;;20838272;28;20053;-73
2021/05/24 12:06:07;;;;;;;2.15;0.70;;;23.10;35.50;;;;;;20837836;28;20435;-70
2021/05/24 12:16:08;;;;;;;3.30;0.80;;;23.20;35.20;;;;;;20850825;28;20049;-71
2021/05/24 12:26:17;;;;;;;1.45;0.82;;;23.30;35.10;;;;;;20833665;28;20056;-71
2021/05/24 12:36:22;;;;;;;2.00;0.88;;;23.20;35.20;;;;;;20838980;28;20064;-72
2021/05/24 12:46:24;;;;;;;5.13;1.00;;;23.40;34.90;;;;;;20840394;28;20053;-70
2021/05/24 12:56:46;;;;;;;1.95;1.00;;;23.30;35.00;;;;;;20832545;28;20053;-71
2021/05/24 13:06:58;;;;;;;0.60;0.50;;;23.60;34.60;;;;;;20830489;28;20073;-72
2021/05/24 13:37:58;;;;;;;0.90;0.40;;;24.20;34.10;;;;;;20856455;28;20053;-73
2021/05/24 13:48:00;;;;;;;1.05;0.77;;;24.10;35.30;;;;;;20857742;28;20068;-72
2021/05/24 13:58:01;;;;;;;2.20;0.80;;;23.90;35.20;;;;;;20834893;28;20053;-71
2021/05/24 14:08:02;;;;;;;5.50;0.90;;;23.90;34.70;;;;;;20830119;28;20054;-71
2021/05/24 14:18:04;;;;;;;1.67;1.07;;;23.90;34.60;;;;;;20829044;28;20053;-71
2021/05/24 14:28:05;;;;;;;2.83;0.90;;;23.70;34.90;;;;;;20827579;28;20049;-73
2021/05/24 14:38:08;;;;;;;2.27;0.67;;;23.70;34.80;;;;;;20826765;28;20494;-71
2021/05/24 14:48:09;;;;;;;;;;;23.80;34.40;;;;;;20837662;28;20064;-72
2021/05/24 14:58:10;;;;;;;2.08;0.57;;;23.70;34.40;;;;;;20843097;28;19925;-71
2021/05/24 15:08:12;;;;;;;3.90;1.00;;;23.80;34.50;;;;;;20841378;28;20045;-72
2021/05/24 15:18:17;;;;;;;3.77;0.73;;;23.90;34.60;;;;;;20841760;28;20060;-71
2021/05/24 15:28:19;;;;;;;2.03;0.52;;;23.70;34.90;;;;;;20839918;28;20100;-70
2021/05/24 15:38:21;;;;;;;1.97;0.90;;;23.70;35.20;;;;;;20840708;28;20065;-70
2021/05/24 15:48:22;;;;;;;1.50;0.67;;;23.60;35.90;;;;;;20840252;28;20061;-72
2021/05/24 15:58:25;;;;;;;2.45;1.23;;;23.60;36.30;;;;;;20838817;28;20049;-71
2021/05/24 16:08:26;;;;;;;1.20;0.75;;;23.40;36.80;;;;;;20839228;28;20053;-72
2021/05/24 16:18:28;;;;;;;1.38;0.50;;;23.40;36.90;;;;;;20847134;28;20056;-70
2021/05/24 16:28:29;;;;;;;2.58;0.82;;;23.30;36.80;;;;;;20845984;28;20053;-71
2021/05/24 16:38:31;;;;;;;2.13;1.27;;;23.30;37.10;;;;;;20837085;28;20049;-72
2021/05/24 16:48:32;;;;;;;3.08;0.68;;;23.20;37.00;;;;;;20853158;28;20036;-72
2021/05/24 16:58:34;;;;;;;9.65;1.48;;;23.20;37.10;;;;;;20850060;28;20518;-71
2021/05/24 17:08:36;;;;;;;1.45;0.70;;;23.20;37.20;;;;;;20833743;28;20068;-73
2021/05/24 17:18:37;;;;;;;3.00;0.68;;;23.20;37.10;;;;;;20833830;28;20057;-71
2021/05/24 17:28:38;;;;;;;2.15;1.00;;;23.20;36.50;;;;;;20831363;28;20064;-71
2021/05/24 17:38:40;;;;;;;1.33;0.70;;;23.20;36.40;;;;;;20831374;28;20417;-73
2021/05/24 17:48:41;;;;;;;8.27;0.80;;;23.20;36.30;;;;;;20833383;28;20144;-72
2021/05/24 17:58:43;;;;;;;1.45;1.00;;;23.10;35.90;;;;;;20868503;28;20084;-72
2021/05/24 18:08:45;;;;;;;1.60;0.77;;;23.10;35.30;;;;;;20829834;28;20096;-74
2021/05/24 18:18:47;;;;;;;1.80;0.70;;;23.30;34.80;;;;;;20838462;28;20474;-74
2021/05/24 18:28:49;;;;;;;4.80;1.20;;;23.30;34.80;;;;;;20846346;28;20395;-73
2021/05/24 18:38:51;;;;;;;2.55;1.10;;;23.30;34.70;;;;;;20844928;28;20449;-70
2021/05/24 18:48:52;;;;;;;;;;;23.20;35.10;;;;;;20846305;28;20435;-73
2021/05/24 18:58:54;;;;;;;1.55;1.00;;;23.00;35.10;;;;;;20843872;28;20358;-73
2021/05/24 19:08:56;;;;;;;1.20;0.77;;;22.90;35.30;;;;;;20847034;28;20088;-74
2021/05/24 19:18:57;;;;;;;1.93;1.13;;;22.70;35.50;;;;;;20870063;28;20498;-72
2021/05/24 19:29:07;;;;;;;2.40;1.40;;;22.60;35.90;;;;;;20892743;28;20049;-73
2021/05/24 19:39:08;;;;;;;3.08;1.90;;;22.50;36.20;;;;;;20846142;28;20478;-69
2021/05/24 20:31:10;;;;;;;2.72;1.30;;;21.90;37.30;;;;;;20526036;28;20632;-75
2021/05/24 20:41:11;;;;;;;2.67;1.30;;;21.70;38.30;;;;;;20585174;28;20070;-74
2021/05/24 20:51:13;;;;;;;1.40;0.95;;;21.50;39.20;;;;;;20602789;28;20058;-73
2021/05/24 21:01:17;;;;;;;2.42;1.00;;;21.40;39.50;;;;;;20808198;28;20072;-75
2021/05/24 21:11:18;;;;;;;4.28;0.90;;;21.20;40.00;;;;;;20835381;28;20048;-71
2021/05/24 21:21:22;;;;;;;2.90;0.90;;;21.10;40.20;;;;;;20855549;28;20050;-74
2021/05/24 21:31:24;;;;;;;2.15;1.20;;;21.00;40.30;;;;;;20835078;28;20098;-76
2021/05/24 21:41:27;;;;;;;3.28;1.38;;;20.80;40.60;;;;;;20833297;28;20053;-72
2021/05/24 21:51:28;;;;;;;2.23;1.30;;;20.70;41.00;;;;;;20830981;28;20049;-76
2021/05/24 22:01:31;;;;;;;1.75;1.10;;;20.50;41.30;;;;;;20835873;28;20053;-75
2021/05/24 22:11:33;;;;;;;1.85;1.23;;;20.30;41.20;;;;;;20831781;28;20489;-75
2021/05/24 22:21:36;;;;;;;2.38;0.90;;;20.20;40.70;;;;;;20847817;28;20041;-74
2021/05/24 22:31:38;;;;;;;2.90;0.98;;;20.20;40.70;;;;;;20829514;28;20127;-69
2021/05/24 22:41:40;;;;;;;2.00;1.20;;;20.10;40.00;;;;;;20828618;28;20198;-74
2021/05/24 22:51:41;;;;;;;1.83;1.20;;;20.00;39.40;;;;;;20829111;28;20054;-74
2021/05/24 23:01:43;;;;;;;3.22;0.90;;;19.90;39.60;;;;;;20827757;28;20045;-73
2021/05/24 23:11:44;;;;;;;4.28;1.30;;;19.70;39.80;;;;;;20841635;28;20460;-73
2021/05/24 23:21:45;;;;;;;2.58;1.25;;;19.70;39.50;;;;;;20842534;28;20096;-74
2021/05/24 23:31:47;;;;;;;3.15;1.58;;;19.60;39.30;;;;;;20843599;28;20061;-74
2021/05/24 23:41:48;;;;;;;4.75;1.50;;;19.50;38.70;;;;;;20855047;28;20068;-73
2021/05/24 23:51:49;;;;;;;2.67;1.55;;;19.50;38.40;;;;;;20840154;28;20057;-75
